sensor_id;sensor_type;location;lat;lon;timestamp;P1;durP1;ratioP1;P2;durP2;ratioP2
7685;SDS011;3885;51.474;-2.576;2023-11-18T00:00:47;0.63;;;0.63;;
7685;SDS011;3885;51.474;-2.576;2023-11-18T00:03:14;0.70;;;0.70;;
7685;SDS011;3885;51.474;-2.576;2023-11-18T00:05:41;0.70;;;0.70;;
7685;SDS011;3885;51.474;-2.576;2023-11-18T00:08:09;0.70;;;0.70;;
7685;SDS011;3885;51.474;-2.576;2023-11-18T00:10:37;0.70;;;0.70;;
7685;SDS011;3885;51.474;-2.576;2023-11-18T00:13:04;0.70;;;0.70;;
7685;SDS011;3885;51.474;-2.576;2023-11-18T00:15:31;0.90;;;0.90;;
7685;SDS011;3885;51.474;-2.576;2023-11-18T00:17:59;1.03;;;1.03;;
7685;SDS011;3885;51.474;-2.576;2023-11-18T00:20:26;0.80;;;0.80;;
7685;SDS011;3885;51.474;-2.576;2023-11-18T00:22:55;0.70;;;0.70;;
7685;SDS011;3885;51.474;-2.576;2023-11-18T00:25:23;0.80;;;0.80;;
7685;SDS011;3885;51.474;-2.576;2023-11-18T00:27:51;0.80;;;0.80;;
7685;SDS011;3885;51.474;-2.576;2023-11-18T00:30:19;0.70;;;0.70;;
7685;SDS011;3885;51.474;-2.576;2023-11-18T00:32:47;0.90;;;0.90;;
7685;SDS011;3885;51.474;-2.576;2023-11-18T00:35:14;0.70;;;0.70;;
7685;SDS011;3885;51.474;-2.576;2023-11-18T00:37:41;0.80;;;0.80;;
7685;SDS011;3885;51.474;-2.576;2023-11-18T00:40:09;0.73;;;0.73;;
7685;SDS011;3885;51.474;-2.576;2023-11-18T00:42:36;0.80;;;0.80;;
7685;SDS011;3885;51.474;-2.576;2023-11-18T00:45:06;0.77;;;0.77;;
7685;SDS011;3885;51.474;-2.576;2023-11-18T00:47:33;0.73;;;0.73;;
7685;SDS011;3885;51.474;-2.576;2023-11-18T00:50:00;0.83;;;0.83;;
7685;SDS011;3885;51.474;-2.576;2023-11-18T00:52:28;0.70;;;0.70;;
7685;SDS011;3885;51.474;-2.576;2023-11-18T00:54:55;0.70;;;0.70;;
7685;SDS011;3885;51.474;-2.576;2023-11-18T00:57:22;1.20;;;1.20;;
7685;SDS011;3885;51.474;-2.576;2023-11-18T00:59:49;0.70;;;0.70;;
7685;SDS011;3885;51.474;-2.576;2023-11-18T01:02:17;0.70;;;0.70;;
7685;SDS011;3885;51.474;-2.576;2023-11-18T01:04:45;0.80;;;0.80;;
7685;SDS011;3885;51.474;-2.576;2023-11-18T01:07:12;0.80;;;0.80;;
7685;SDS011;3885;51.474;-2.576;2023-11-18T01:09:39;0.80;;;0.80;;
7685;SDS011;3885;51.474;-2.576;2023-11-18T01:12:06;0.80;;;0.80;;
7685;SDS011;3885;51.474;-2.576;2023-11-18T01:14:35;0.90;;;0.90;;
7685;SDS011;3885;51.474;-2.576;2023-11-18T01:17:03;0.70;;;0.70;;
7685;SDS011;3885;51.474;-2.576;2023-11-18T01:19:32;1.00;;;1.00;;
7685;SDS011;3885;51.474;-2.576;2023-11-18T01:21:59;0.90;;;0.90;;
7685;SDS011;3885;51.474;-2.576;2023-11-18T01:24:30;0.70;;;0.70;;
7685;SDS011;3885;51.474;-2.576;2023-11-18T01:26:57;0.80;;;0.80;;
7685;SDS011;3885;51.474;-2.576;2023-11-18T01:29:25;0.80;;;0.80;;
7685;SDS011;3885;51.474;-2.576;2023-11-18T01:31:52;0.73;;;0.73;;
7685;SDS011;3885;51.474;-2.576;2023-11-18T01:34:20;0.80;;;0.80;;
7685;SDS011;3885;51.474;-2.576;2023-11-18T01:36:49;0.93;;;0.93;;
7685;SDS011;3885;51.474;-2.576;2023-11-18T01:39:16;0.93;;;0.93;;
7685;SDS011;3885;51.474;-2.576;2023-11-18T01:41:44;1.10;;;1.10;;
7685;SDS011;3885;51.474;-2.576;2023-11-18T01:44:11;0.90;;;0.90;;
7685;SDS011;3885;51.474;-2.576;2023-11-18T01:46:40;0.83;;;0.83;;
7685;SDS011;3885;51.474;-2.576;2023-11-18T01:49:10;0.90;;;0.90;;
7685;SDS011;3885;51.474;-2.576;2023-11-18T01:51:38;0.83;;;0.83;;
7685;SDS011;3885;51.474;-2.576;2023-11-18T01:54:07;0.90;;;0.90;;
7685;SDS011;3885;51.474;-2.576;2023-11-18T01:56:36;0.90;;;0.90;;
7685;SDS011;3885;51.474;-2.576;2023-11-18T01:59:04;0.90;;;0.90;;
7685;SDS011;3885;51.474;-2.576;2023-11-18T02:01:34;0.90;;;0.90;;
7685;SDS011;3885;51.474;-2.576;2023-11-18T02:04:01;0.90;;;0.90;;
7685;SDS011;3885;51.474;-2.576;2023-11-18T02:06:32;1.10;;;1.10;;
7685;SDS011;3885;51.474;-2.576;2023-11-18T02:09:01;1.10;;;1.10;;
7685;SDS011;3885;51.474;-2.576;2023-11-18T02:11:31;1.00;;;1.00;;
7685;SDS011;3885;51.474;-2.576;2023-11-18T02:14:06;1.10;;;1.10;;
7685;SDS011;3885;51.474;-2.576;2023-11-18T02:16:36;1.10;;;1.10;;
7685;SDS011;3885;51.474;-2.576;2023-11-18T02:19:04;1.00;;;1.00;;
7685;SDS011;3885;51.474;-2.576;2023-11-18T02:21:35;1.00;;;1.00;;
7685;SDS011;3885;51.474;-2.576;2023-11-18T02:24:03;1.00;;;1.00;;
7685;SDS011;3885;51.474;-2.576;2023-11-18T02:26:32;0.90;;;0.90;;
7685;SDS011;3885;51.474;-2.576;2023-11-18T02:28:59;0.90;;;0.90;;
7685;SDS011;3885;51.474;-2.576;2023-11-18T02:31:27;0.80;;;0.80;;
7685;SDS011;3885;51.474;-2.576;2023-11-18T02:34:00;0.70;;;0.70;;
7685;SDS011;3885;51.474;-2.576;2023-11-18T02:36:31;0.90;;;0.90;;
7685;SDS011;3885;51.474;-2.576;2023-11-18T02:39:04;1.00;;;1.00;;
7685;SDS011;3885;51.474;-2.576;2023-11-18T02:41:38;0.97;;;0.97;;
7685;SDS011;3885;51.474;-2.576;2023-11-18T02:44:06;1.00;;;1.00;;
7685;SDS011;3885;51.474;-2.576;2023-11-18T02:46:35;0.87;;;0.87;;
7685;SDS011;3885;51.474;-2.576;2023-11-18T02:49:03;0.97;;;0.97;;
7685;SDS011;3885;51.474;-2.576;2023-11-18T02:51:30;0.90;;;0.90;;
7685;SDS011;3885;51.474;-2.576;2023-11-18T02:53:58;0.83;;;0.83;;
7685;SDS011;3885;51.474;-2.576;2023-11-18T02:56:25;0.97;;;0.97;;
7685;SDS011;3885;51.474;-2.576;2023-11-18T02:58:54;1.13;;;1.13;;
7685;SDS011;3885;51.474;-2.576;2023-11-18T03:01:21;0.80;;;0.80;;
7685;SDS011;3885;51.474;-2.576;2023-11-18T03:03:50;0.90;;;0.90;;
7685;SDS011;3885;51.474;-2.576;2023-11-18T03:06:17;0.70;;;0.70;;
7685;SDS011;3885;51.474;-2.576;2023-11-18T03:08:44;0.80;;;0.80;;
7685;SDS011;3885;51.474;-2.576;2023-11-18T03:11:11;0.90;;;0.90;;
7685;SDS011;3885;51.474;-2.576;2023-11-18T03:13:38;0.80;;;0.80;;
7685;SDS011;3885;51.474;-2.576;2023-11-18T03:16:07;0.90;;;0.90;;
7685;SDS011;3885;51.474;-2.576;2023-11-18T03:18:37;0.87;;;0.87;;
7685;SDS011;3885;51.474;-2.576;2023-11-18T03:21:05;0.90;;;0.90;;
7685;SDS011;3885;51.474;-2.576;2023-11-18T03:23:32;0.90;;;0.90;;
7685;SDS011;3885;51.474;-2.576;2023-11-18T03:26:00;0.70;;;0.70;;
7685;SDS011;3885;51.474;-2.576;2023-11-18T03:28:26;1.10;;;1.10;;
7685;SDS011;3885;51.474;-2.576;2023-11-18T03:30:54;1.00;;;1.00;;
7685;SDS011;3885;51.474;-2.576;2023-11-18T03:33:23;0.97;;;0.97;;
7685;SDS011;3885;51.474;-2.576;2023-11-18T03:35:50;0.90;;;0.90;;
7685;SDS011;3885;51.474;-2.576;2023-11-18T03:38:18;0.90;;;0.90;;
7685;SDS011;3885;51.474;-2.576;2023-11-18T03:40:45;1.00;;;1.00;;
7685;SDS011;3885;51.474;-2.576;2023-11-18T03:43:12;1.00;;;1.00;;
7685;SDS011;3885;51.474;-2.576;2023-11-18T03:45:39;0.93;;;0.93;;
7685;SDS011;3885;51.474;-2.576;2023-11-18T03:48:07;0.87;;;0.87;;
7685;SDS011;3885;51.474;-2.576;2023-11-18T03:50:40;1.00;;;1.00;;
7685;SDS011;3885;51.474;-2.576;2023-11-18T03:53:09;0.87;;;0.87;;
7685;SDS011;3885;51.474;-2.576;2023-11-18T03:55:37;0.83;;;0.83;;
7685;SDS011;3885;51.474;-2.576;2023-11-18T03:58:04;0.80;;;0.80;;
7685;SDS011;3885;51.474;-2.576;2023-11-18T04:00:33;0.80;;;0.80;;
7685;SDS011;3885;51.474;-2.576;2023-11-18T04:03:00;0.93;;;0.93;;
7685;SDS011;3885;51.474;-2.576;2023-11-18T04:05:28;0.90;;;0.90;;
7685;SDS011;3885;51.474;-2.576;2023-11-18T04:07:58;0.90;;;0.90;;
7685;SDS011;3885;51.474;-2.576;2023-11-18T04:10:25;1.00;;;1.00;;
7685;SDS011;3885;51.474;-2.576;2023-11-18T04:12:52;1.90;;;1.80;;
7685;SDS011;3885;51.474;-2.576;2023-11-18T04:15:19;1.00;;;1.00;;
7685;SDS011;3885;51.474;-2.576;2023-11-18T04:17:46;1.13;;;1.13;;
7685;SDS011;3885;51.474;-2.576;2023-11-18T04:20:13;1.10;;;1.10;;
7685;SDS011;3885;51.474;-2.576;2023-11-18T04:22:41;1.10;;;1.10;;
7685;SDS011;3885;51.474;-2.576;2023-11-18T04:25:09;1.03;;;1.03;;
7685;SDS011;3885;51.474;-2.576;2023-11-18T04:27:36;0.97;;;0.97;;
7685;SDS011;3885;51.474;-2.576;2023-11-18T04:30:04;1.17;;;1.17;;
7685;SDS011;3885;51.474;-2.576;2023-11-18T04:32:31;1.00;;;1.00;;
7685;SDS011;3885;51.474;-2.576;2023-11-18T04:34:59;1.33;;;1.33;;
7685;SDS011;3885;51.474;-2.576;2023-11-18T04:37:31;1.23;;;1.23;;
7685;SDS011;3885;51.474;-2.576;2023-11-18T04:39:58;1.20;;;1.20;;
7685;SDS011;3885;51.474;-2.576;2023-11-18T04:42:27;1.43;;;1.20;;
7685;SDS011;3885;51.474;-2.576;2023-11-18T04:44:54;1.23;;;1.23;;
7685;SDS011;3885;51.474;-2.576;2023-11-18T04:47:23;1.37;;;1.37;;
7685;SDS011;3885;51.474;-2.576;2023-11-18T04:49:52;1.37;;;1.37;;
7685;SDS011;3885;51.474;-2.576;2023-11-18T04:52:19;1.17;;;1.17;;
7685;SDS011;3885;51.474;-2.576;2023-11-18T04:54:46;1.07;;;1.07;;
7685;SDS011;3885;51.474;-2.576;2023-11-18T04:57:13;1.07;;;1.07;;
7685;SDS011;3885;51.474;-2.576;2023-11-18T04:59:42;1.13;;;1.13;;
7685;SDS011;3885;51.474;-2.576;2023-11-18T05:02:09;0.90;;;0.90;;
7685;SDS011;3885;51.474;-2.576;2023-11-18T05:04:36;1.17;;;1.17;;
7685;SDS011;3885;51.474;-2.576;2023-11-18T05:07:04;1.20;;;1.20;;
7685;SDS011;3885;51.474;-2.576;2023-11-18T05:09:31;0.90;;;0.90;;
7685;SDS011;3885;51.474;-2.576;2023-11-18T05:11:59;1.50;;;1.50;;
7685;SDS011;3885;51.474;-2.576;2023-11-18T05:14:26;1.33;;;1.33;;
7685;SDS011;3885;51.474;-2.576;2023-11-18T05:16:55;1.30;;;1.30;;
7685;SDS011;3885;51.474;-2.576;2023-11-18T05:19:22;1.50;;;1.50;;
7685;SDS011;3885;51.474;-2.576;2023-11-18T05:21:50;1.20;;;1.20;;
7685;SDS011;3885;51.474;-2.576;2023-11-18T05:24:17;1.40;;;1.40;;
7685;SDS011;3885;51.474;-2.576;2023-11-18T05:26:44;1.10;;;1.10;;
7685;SDS011;3885;51.474;-2.576;2023-11-18T05:29:11;1.20;;;1.20;;
7685;SDS011;3885;51.474;-2.576;2023-11-18T05:31:41;1.10;;;1.10;;
7685;SDS011;3885;51.474;-2.576;2023-11-18T05:34:10;1.17;;;1.17;;
7685;SDS011;3885;51.474;-2.576;2023-11-18T05:36:38;1.20;;;1.20;;
7685;SDS011;3885;51.474;-2.576;2023-11-18T05:39:05;1.10;;;1.10;;
7685;SDS011;3885;51.474;-2.576;2023-11-18T05:41:34;1.10;;;1.10;;
7685;SDS011;3885;51.474;-2.576;2023-11-18T05:44:04;1.13;;;1.13;;
7685;SDS011;3885;51.474;-2.576;2023-11-18T05:46:34;0.90;;;0.90;;
7685;SDS011;3885;51.474;-2.576;2023-11-18T05:49:02;1.00;;;1.00;;
7685;SDS011;3885;51.474;-2.576;2023-11-18T05:51:33;0.97;;;0.97;;
7685;SDS011;3885;51.474;-2.576;2023-11-18T05:54:01;1.00;;;1.00;;
7685;SDS011;3885;51.474;-2.576;2023-11-18T05:56:28;1.00;;;1.00;;
7685;SDS011;3885;51.474;-2.576;2023-11-18T05:58:55;1.00;;;1.00;;
7685;SDS011;3885;51.474;-2.576;2023-11-18T06:01:22;0.90;;;0.90;;
7685;SDS011;3885;51.474;-2.576;2023-11-18T06:03:49;1.00;;;1.00;;
7685;SDS011;3885;51.474;-2.576;2023-11-18T06:06:16;1.00;;;1.00;;
7685;SDS011;3885;51.474;-2.576;2023-11-18T06:08:44;1.00;;;1.00;;
7685;SDS011;3885;51.474;-2.576;2023-11-18T06:11:13;1.10;;;1.10;;
7685;SDS011;3885;51.474;-2.576;2023-11-18T06:13:41;0.90;;;0.90;;
7685;SDS011;3885;51.474;-2.576;2023-11-18T06:16:12;0.90;;;0.90;;
7685;SDS011;3885;51.474;-2.576;2023-11-18T06:18:41;1.07;;;1.07;;
7685;SDS011;3885;51.474;-2.576;2023-11-18T06:21:11;1.20;;;1.20;;
7685;SDS011;3885;51.474;-2.576;2023-11-18T06:23:39;1.00;;;1.00;;
7685;SDS011;3885;51.474;-2.576;2023-11-18T06:26:08;1.10;;;1.10;;
7685;SDS011;3885;51.474;-2.576;2023-11-18T06:28:36;1.03;;;1.03;;
7685;SDS011;3885;51.474;-2.576;2023-11-18T06:31:04;1.00;;;1.00;;
7685;SDS011;3885;51.474;-2.576;2023-11-18T06:33:35;1.00;;;1.00;;
7685;SDS011;3885;51.474;-2.576;2023-11-18T06:36:03;1.13;;;1.13;;
7685;SDS011;3885;51.474;-2.576;2023-11-18T06:38:32;1.10;;;1.10;;
7685;SDS011;3885;51.474;-2.576;2023-11-18T06:40:59;1.30;;;1.30;;
7685;SDS011;3885;51.474;-2.576;2023-11-18T06:43:29;1.10;;;1.10;;
7685;SDS011;3885;51.474;-2.576;2023-11-18T06:46:11;1.10;;;1.10;;
7685;SDS011;3885;51.474;-2.576;2023-11-18T06:48:39;1.20;;;1.20;;
7685;SDS011;3885;51.474;-2.576;2023-11-18T06:51:06;1.20;;;1.20;;
7685;SDS011;3885;51.474;-2.576;2023-11-18T06:53:34;1.17;;;1.17;;
7685;SDS011;3885;51.474;-2.576;2023-11-18T06:56:01;1.10;;;1.10;;
7685;SDS011;3885;51.474;-2.576;2023-11-18T06:58:30;1.30;;;1.30;;
7685;SDS011;3885;51.474;-2.576;2023-11-18T07:00:57;1.43;;;1.43;;
7685;SDS011;3885;51.474;-2.576;2023-11-18T07:03:24;1.10;;;1.10;;
7685;SDS011;3885;51.474;-2.576;2023-11-18T07:05:51;1.20;;;1.20;;
7685;SDS011;3885;51.474;-2.576;2023-11-18T07:08:18;1.23;;;1.23;;
7685;SDS011;3885;51.474;-2.576;2023-11-18T07:10:45;1.20;;;1.20;;
7685;SDS011;3885;51.474;-2.576;2023-11-18T07:13:13;1.27;;;1.27;;
7685;SDS011;3885;51.474;-2.576;2023-11-18T07:15:42;1.10;;;1.10;;
7685;SDS011;3885;51.474;-2.576;2023-11-18T07:18:10;1.43;;;1.43;;
7685;SDS011;3885;51.474;-2.576;2023-11-18T07:20:37;1.10;;;1.10;;
7685;SDS011;3885;51.474;-2.576;2023-11-18T07:23:04;1.10;;;1.10;;
7685;SDS011;3885;51.474;-2.576;2023-11-18T07:25:33;1.10;;;1.10;;
7685;SDS011;3885;51.474;-2.576;2023-11-18T07:28:01;1.40;;;1.40;;
7685;SDS011;3885;51.474;-2.576;2023-11-18T07:30:30;1.10;;;1.10;;
7685;SDS011;3885;51.474;-2.576;2023-11-18T07:32:58;1.20;;;1.20;;
7685;SDS011;3885;51.474;-2.576;2023-11-18T07:35:26;1.10;;;1.10;;
7685;SDS011;3885;51.474;-2.576;2023-11-18T07:37:54;1.33;;;1.33;;
7685;SDS011;3885;51.474;-2.576;2023-11-18T07:40:23;1.20;;;1.20;;
7685;SDS011;3885;51.474;-2.576;2023-11-18T07:42:53;1.30;;;1.30;;
7685;SDS011;3885;51.474;-2.576;2023-11-18T07:45:20;1.37;;;1.37;;
7685;SDS011;3885;51.474;-2.576;2023-11-18T07:47:48;1.30;;;1.30;;
7685;SDS011;3885;51.474;-2.576;2023-11-18T07:50:17;1.40;;;1.40;;
7685;SDS011;3885;51.474;-2.576;2023-11-18T07:52:46;1.40;;;1.40;;
7685;SDS011;3885;51.474;-2.576;2023-11-18T07:55:13;1.37;;;1.37;;
7685;SDS011;3885;51.474;-2.576;2023-11-18T07:57:41;1.67;;;1.67;;
7685;SDS011;3885;51.474;-2.576;2023-11-18T08:00:08;1.37;;;1.37;;
7685;SDS011;3885;51.474;-2.576;2023-11-18T08:02:36;1.50;;;1.50;;
7685;SDS011;3885;51.474;-2.576;2023-11-18T08:05:04;1.27;;;1.27;;
7685;SDS011;3885;51.474;-2.576;2023-11-18T08:07:34;1.43;;;1.43;;
7685;SDS011;3885;51.474;-2.576;2023-11-18T08:10:01;1.40;;;1.40;;
7685;SDS011;3885;51.474;-2.576;2023-11-18T08:12:30;1.27;;;1.27;;
7685;SDS011;3885;51.474;-2.576;2023-11-18T08:14:57;1.50;;;1.50;;
7685;SDS011;3885;51.474;-2.576;2023-11-18T08:17:25;1.27;;;1.27;;
7685;SDS011;3885;51.474;-2.576;2023-11-18T08:19:52;1.50;;;1.50;;
7685;SDS011;3885;51.474;-2.576;2023-11-18T08:22:19;1.37;;;1.37;;
7685;SDS011;3885;51.474;-2.576;2023-11-18T08:24:49;1.20;;;1.20;;
7685;SDS011;3885;51.474;-2.576;2023-11-18T08:27:16;1.17;;;1.17;;
7685;SDS011;3885;51.474;-2.576;2023-11-18T08:29:44;3.90;;;1.67;;
7685;SDS011;3885;51.474;-2.576;2023-11-18T08:32:13;1.20;;;1.20;;
7685;SDS011;3885;51.474;-2.576;2023-11-18T08:34:40;1.50;;;1.50;;
7685;SDS011;3885;51.474;-2.576;2023-11-18T08:37:08;1.23;;;1.23;;
7685;SDS011;3885;51.474;-2.576;2023-11-18T08:39:35;1.30;;;1.30;;
7685;SDS011;3885;51.474;-2.576;2023-11-18T08:42:04;1.10;;;1.10;;
7685;SDS011;3885;51.474;-2.576;2023-11-18T08:44:32;1.27;;;1.27;;
7685;SDS011;3885;51.474;-2.576;2023-11-18T08:46:59;1.20;;;1.20;;
7685;SDS011;3885;51.474;-2.576;2023-11-18T08:49:31;1.27;;;1.27;;
7685;SDS011;3885;51.474;-2.576;2023-11-18T08:51:59;1.20;;;1.20;;
7685;SDS011;3885;51.474;-2.576;2023-11-18T08:54:26;1.57;;;1.57;;
7685;SDS011;3885;51.474;-2.576;2023-11-18T08:57:04;1.10;;;1.10;;
7685;SDS011;3885;51.474;-2.576;2023-11-18T08:59:45;1.50;;;1.50;;
7685;SDS011;3885;51.474;-2.576;2023-11-18T09:02:12;1.20;;;1.20;;
7685;SDS011;3885;51.474;-2.576;2023-11-18T09:04:40;1.33;;;1.33;;
7685;SDS011;3885;51.474;-2.576;2023-11-18T09:07:08;1.20;;;1.20;;
7685;SDS011;3885;51.474;-2.576;2023-11-18T09:09:36;1.17;;;1.17;;
7685;SDS011;3885;51.474;-2.576;2023-11-18T09:12:06;1.40;;;1.40;;
7685;SDS011;3885;51.474;-2.576;2023-11-18T09:14:34;1.30;;;1.30;;
7685;SDS011;3885;51.474;-2.576;2023-11-18T09:17:02;1.30;;;1.30;;
7685;SDS011;3885;51.474;-2.576;2023-11-18T09:19:31;1.17;;;1.17;;
7685;SDS011;3885;51.474;-2.576;2023-11-18T09:21:59;1.20;;;1.20;;
7685;SDS011;3885;51.474;-2.576;2023-11-18T09:24:26;1.10;;;1.10;;
7685;SDS011;3885;51.474;-2.576;2023-11-18T09:26:53;1.20;;;1.20;;
7685;SDS011;3885;51.474;-2.576;2023-11-18T09:29:21;1.20;;;1.20;;
7685;SDS011;3885;51.474;-2.576;2023-11-18T09:31:49;1.00;;;1.00;;
7685;SDS011;3885;51.474;-2.576;2023-11-18T09:34:17;1.00;;;1.00;;
7685;SDS011;3885;51.474;-2.576;2023-11-18T09:36:52;1.10;;;1.10;;
7685;SDS011;3885;51.474;-2.576;2023-11-18T09:39:19;1.00;;;1.00;;
7685;SDS011;3885;51.474;-2.576;2023-11-18T09:42:03;1.10;;;1.10;;
7685;SDS011;3885;51.474;-2.576;2023-11-18T09:44:35;1.00;;;1.00;;
7685;SDS011;3885;51.474;-2.576;2023-11-18T09:47:04;1.40;;;1.40;;
7685;SDS011;3885;51.474;-2.576;2023-11-18T09:49:39;0.90;;;0.90;;
7685;SDS011;3885;51.474;-2.576;2023-11-18T09:52:13;1.00;;;1.00;;
7685;SDS011;3885;51.474;-2.576;2023-11-18T09:54:45;0.90;;;0.90;;
7685;SDS011;3885;51.474;-2.576;2023-11-18T09:57:19;0.80;;;0.80;;
7685;SDS011;3885;51.474;-2.576;2023-11-18T09:59:54;1.20;;;1.20;;
7685;SDS011;3885;51.474;-2.576;2023-11-18T10:02:24;0.97;;;0.97;;
7685;SDS011;3885;51.474;-2.576;2023-11-18T10:04:51;0.90;;;0.90;;
7685;SDS011;3885;51.474;-2.576;2023-11-18T10:07:22;0.90;;;0.90;;
7685;SDS011;3885;51.474;-2.576;2023-11-18T10:09:52;0.80;;;0.80;;
7685;SDS011;3885;51.474;-2.576;2023-11-18T10:12:22;1.00;;;1.00;;
7685;SDS011;3885;51.474;-2.576;2023-11-18T10:14:53;0.90;;;0.90;;
7685;SDS011;3885;51.474;-2.576;2023-11-18T10:17:21;1.10;;;1.10;;
7685;SDS011;3885;51.474;-2.576;2023-11-18T10:19:50;0.80;;;0.80;;
7685;SDS011;3885;51.474;-2.576;2023-11-18T10:22:23;1.00;;;1.00;;
7685;SDS011;3885;51.474;-2.576;2023-11-18T10:24:51;1.00;;;1.00;;
7685;SDS011;3885;51.474;-2.576;2023-11-18T10:27:20;0.90;;;0.90;;
7685;SDS011;3885;51.474;-2.576;2023-11-18T10:29:48;1.00;;;1.00;;
7685;SDS011;3885;51.474;-2.576;2023-11-18T10:32:18;0.80;;;0.80;;
7685;SDS011;3885;51.474;-2.576;2023-11-18T10:34:47;0.90;;;0.90;;
7685;SDS011;3885;51.474;-2.576;2023-11-18T10:37:16;0.80;;;0.80;;
7685;SDS011;3885;51.474;-2.576;2023-11-18T10:39:46;0.83;;;0.83;;
7685;SDS011;3885;51.474;-2.576;2023-11-18T10:42:13;0.77;;;0.77;;
7685;SDS011;3885;51.474;-2.576;2023-11-18T10:44:53;0.80;;;0.80;;
7685;SDS011;3885;51.474;-2.576;2023-11-18T10:47:24;0.80;;;0.80;;
7685;SDS011;3885;51.474;-2.576;2023-11-18T10:49:52;0.80;;;0.80;;
7685;SDS011;3885;51.474;-2.576;2023-11-18T10:52:21;0.70;;;0.70;;
7685;SDS011;3885;51.474;-2.576;2023-11-18T10:54:51;0.80;;;0.80;;
7685;SDS011;3885;51.474;-2.576;2023-11-18T10:57:20;0.80;;;0.80;;
7685;SDS011;3885;51.474;-2.576;2023-11-18T10:59:59;0.70;;;0.70;;
7685;SDS011;3885;51.474;-2.576;2023-11-18T11:02:31;0.70;;;0.70;;
7685;SDS011;3885;51.474;-2.576;2023-11-18T11:05:06;0.50;;;0.50;;
7685;SDS011;3885;51.474;-2.576;2023-11-18T11:07:40;0.70;;;0.70;;
7685;SDS011;3885;51.474;-2.576;2023-11-18T11:10:09;0.60;;;0.60;;
7685;SDS011;3885;51.474;-2.576;2023-11-18T11:12:40;0.57;;;0.57;;
7685;SDS011;3885;51.474;-2.576;2023-11-18T11:15:17;0.60;;;0.60;;
7685;SDS011;3885;51.474;-2.576;2023-11-18T11:17:51;0.50;;;0.50;;
7685;SDS011;3885;51.474;-2.576;2023-11-18T11:20:21;0.50;;;0.50;;
7685;SDS011;3885;51.474;-2.576;2023-11-18T11:22:55;0.50;;;0.50;;
7685;SDS011;3885;51.474;-2.576;2023-11-18T11:25:24;0.50;;;0.50;;
7685;SDS011;3885;51.474;-2.576;2023-11-18T11:27:54;0.50;;;0.50;;
7685;SDS011;3885;51.474;-2.576;2023-11-18T11:30:28;0.50;;;0.50;;
7685;SDS011;3885;51.474;-2.576;2023-11-18T11:33:06;0.50;;;0.50;;
7685;SDS011;3885;51.474;-2.576;2023-11-18T11:35:38;0.50;;;0.50;;
7685;SDS011;3885;51.474;-2.576;2023-11-18T11:38:09;0.50;;;0.50;;
7685;SDS011;3885;51.474;-2.576;2023-11-18T11:40:39;0.50;;;0.50;;
7685;SDS011;3885;51.474;-2.576;2023-11-18T11:43:09;0.50;;;0.50;;
7685;SDS011;3885;51.474;-2.576;2023-11-18T11:45:36;0.50;;;0.50;;
7685;SDS011;3885;51.474;-2.576;2023-11-18T11:48:06;0.50;;;0.50;;
7685;SDS011;3885;51.474;-2.576;2023-11-18T11:50:56;0.50;;;0.50;;
7685;SDS011;3885;51.474;-2.576;2023-11-18T11:53:29;0.50;;;0.50;;
7685;SDS011;3885;51.474;-2.576;2023-11-18T11:55:58;0.50;;;0.50;;
7685;SDS011;3885;51.474;-2.576;2023-11-18T11:58:33;0.50;;;0.50;;
7685;SDS011;3885;51.474;-2.576;2023-11-18T12:01:02;0.50;;;0.50;;
7685;SDS011;3885;51.474;-2.576;2023-11-18T12:03:38;0.50;;;0.50;;
7685;SDS011;3885;51.474;-2.576;2023-11-18T12:06:08;0.47;;;0.47;;
7685;SDS011;3885;51.474;-2.576;2023-11-18T12:08:36;0.50;;;0.50;;
7685;SDS011;3885;51.474;-2.576;2023-11-18T12:11:05;0.50;;;0.50;;
7685;SDS011;3885;51.474;-2.576;2023-11-18T12:13:35;0.50;;;0.50;;
7685;SDS011;3885;51.474;-2.576;2023-11-18T12:16:04;0.67;;;0.67;;
7685;SDS011;3885;51.474;-2.576;2023-11-18T12:18:35;1.57;;;1.47;;
7685;SDS011;3885;51.474;-2.576;2023-11-18T12:21:04;0.50;;;0.50;;
7685;SDS011;3885;51.474;-2.576;2023-11-18T12:23:36;0.40;;;0.40;;
7685;SDS011;3885;51.474;-2.576;2023-11-18T12:26:37;0.50;;;0.50;;
7685;SDS011;3885;51.474;-2.576;2023-11-18T12:28:55;0.50;;;0.50;;
7685;SDS011;3885;51.474;-2.576;2023-11-18T12:31:38;0.50;;;0.50;;
7685;SDS011;3885;51.474;-2.576;2023-11-18T12:34:06;0.50;;;0.50;;
7685;SDS011;3885;51.474;-2.576;2023-11-18T12:36:52;0.50;;;0.50;;
7685;SDS011;3885;51.474;-2.576;2023-11-18T12:39:44;0.50;;;0.50;;
7685;SDS011;3885;51.474;-2.576;2023-11-18T12:42:20;0.50;;;0.50;;
7685;SDS011;3885;51.474;-2.576;2023-11-18T12:44:57;0.43;;;0.43;;
7685;SDS011;3885;51.474;-2.576;2023-11-18T12:47:42;0.50;;;0.50;;
7685;SDS011;3885;51.474;-2.576;2023-11-18T12:50:10;0.80;;;0.80;;
7685;SDS011;3885;51.474;-2.576;2023-11-18T12:52:50;0.50;;;0.50;;
7685;SDS011;3885;51.474;-2.576;2023-11-18T12:55:18;0.50;;;0.50;;
7685;SDS011;3885;51.474;-2.576;2023-11-18T12:57:46;0.50;;;0.50;;
7685;SDS011;3885;51.474;-2.576;2023-11-18T13:00:14;3.50;;;2.20;;
7685;SDS011;3885;51.474;-2.576;2023-11-18T13:02:52;0.70;;;0.70;;
7685;SDS011;3885;51.474;-2.576;2023-11-18T13:05:19;0.50;;;0.50;;
7685;SDS011;3885;51.474;-2.576;2023-11-18T13:07:46;0.50;;;0.50;;
7685;SDS011;3885;51.474;-2.576;2023-11-18T13:10:15;0.50;;;0.50;;
7685;SDS011;3885;51.474;-2.576;2023-11-18T13:12:43;0.50;;;0.50;;
7685;SDS011;3885;51.474;-2.576;2023-11-18T13:15:12;0.50;;;0.50;;
7685;SDS011;3885;51.474;-2.576;2023-11-18T13:17:41;0.50;;;0.50;;
7685;SDS011;3885;51.474;-2.576;2023-11-18T13:20:23;0.50;;;0.50;;
7685;SDS011;3885;51.474;-2.576;2023-11-18T13:22:51;0.50;;;0.50;;
7685;SDS011;3885;51.474;-2.576;2023-11-18T13:25:22;0.50;;;0.50;;
7685;SDS011;3885;51.474;-2.576;2023-11-18T13:27:49;0.50;;;0.50;;
7685;SDS011;3885;51.474;-2.576;2023-11-18T13:30:16;0.50;;;0.50;;
7685;SDS011;3885;51.474;-2.576;2023-11-18T13:32:45;0.50;;;0.50;;
7685;SDS011;3885;51.474;-2.576;2023-11-18T13:35:14;0.50;;;0.50;;
7685;SDS011;3885;51.474;-2.576;2023-11-18T13:37:45;0.50;;;0.50;;
7685;SDS011;3885;51.474;-2.576;2023-11-18T13:40:13;0.50;;;0.50;;
7685;SDS011;3885;51.474;-2.576;2023-11-18T13:42:44;0.50;;;0.50;;
7685;SDS011;3885;51.474;-2.576;2023-11-18T13:45:12;0.50;;;0.50;;
7685;SDS011;3885;51.474;-2.576;2023-11-18T13:47:50;1.47;;;1.37;;
7685;SDS011;3885;51.474;-2.576;2023-11-18T13:50:18;0.60;;;0.60;;
7685;SDS011;3885;51.474;-2.576;2023-11-18T13:52:45;0.50;;;0.50;;
7685;SDS011;3885;51.474;-2.576;2023-11-18T13:55:14;0.40;;;0.40;;
7685;SDS011;3885;51.474;-2.576;2023-11-18T13:57:52;0.50;;;0.50;;
7685;SDS011;3885;51.474;-2.576;2023-11-18T14:00:21;0.50;;;0.50;;
7685;SDS011;3885;51.474;-2.576;2023-11-18T14:02:52;0.50;;;0.50;;
7685;SDS011;3885;51.474;-2.576;2023-11-18T14:05:20;0.50;;;0.50;;
7685;SDS011;3885;51.474;-2.576;2023-11-18T14:07:49;0.67;;;0.67;;
7685;SDS011;3885;51.474;-2.576;2023-11-18T14:10:16;0.50;;;0.50;;
7685;SDS011;3885;51.474;-2.576;2023-11-18T14:15:28;0.50;;;0.50;;
7685;SDS011;3885;51.474;-2.576;2023-11-18T14:17:56;0.50;;;0.50;;
7685;SDS011;3885;51.474;-2.576;2023-11-18T14:20:23;0.50;;;0.50;;
7685;SDS011;3885;51.474;-2.576;2023-11-18T14:22:51;0.50;;;0.50;;
7685;SDS011;3885;51.474;-2.576;2023-11-18T14:25:19;0.50;;;0.50;;
7685;SDS011;3885;51.474;-2.576;2023-11-18T14:27:48;0.47;;;0.47;;
7685;SDS011;3885;51.474;-2.576;2023-11-18T14:30:17;0.47;;;0.47;;
7685;SDS011;3885;51.474;-2.576;2023-11-18T14:32:46;0.50;;;0.50;;
7685;SDS011;3885;51.474;-2.576;2023-11-18T14:35:13;0.50;;;0.50;;
7685;SDS011;3885;51.474;-2.576;2023-11-18T14:37:42;0.43;;;0.43;;
7685;SDS011;3885;51.474;-2.576;2023-11-18T14:40:10;0.50;;;0.50;;
7685;SDS011;3885;51.474;-2.576;2023-11-18T14:42:39;0.50;;;0.50;;
7685;SDS011;3885;51.474;-2.576;2023-11-18T14:45:08;0.50;;;0.50;;
7685;SDS011;3885;51.474;-2.576;2023-11-18T14:47:37;0.50;;;0.50;;
7685;SDS011;3885;51.474;-2.576;2023-11-18T14:50:06;0.50;;;0.50;;
7685;SDS011;3885;51.474;-2.576;2023-11-18T14:52:42;28.67;;;3.10;;
7685;SDS011;3885;51.474;-2.576;2023-11-18T14:55:10;0.50;;;0.50;;
7685;SDS011;3885;51.474;-2.576;2023-11-18T14:57:38;0.50;;;0.50;;
7685;SDS011;3885;51.474;-2.576;2023-11-18T15:00:06;0.50;;;0.50;;
7685;SDS011;3885;51.474;-2.576;2023-11-18T15:02:44;0.50;;;0.50;;
7685;SDS011;3885;51.474;-2.576;2023-11-18T15:05:13;0.50;;;0.50;;
7685;SDS011;3885;51.474;-2.576;2023-11-18T15:07:43;4.47;;;0.60;;
7685;SDS011;3885;51.474;-2.576;2023-11-18T15:10:12;0.50;;;0.50;;
7685;SDS011;3885;51.474;-2.576;2023-11-18T15:12:44;0.50;;;0.50;;
7685;SDS011;3885;51.474;-2.576;2023-11-18T15:15:11;0.40;;;0.40;;